Terminal Aerodrome Forecast
Issued by NWS Wilmington, OH

Current Version | Previous Version | Graphics & Text | Print | Product List | Glossary On
Versions: 1 2 3 4 5 6 7 8 9 10 11 12 13 14 15 16 17 18 19
000
FTUS41 KILN 271348 AAA
TAFCMH
TAF AMD
KCMH 271348Z 2714/2812 06003KT P6SM FEW040 BKN100
      TEMPO 2714/2716 4SM -RA BKN040
     FM271600 07004KT P6SM VCSH SCT025 BKN120
      TEMPO 2716/2720 4SM -RA BKN030
     FM272200 02004KT P6SM FEW025 BKN150
      TEMPO 2800/2802 00000KT 5SM BR SKC
     FM280200 04002KT 5SM BR FEW030=

USA.gov is the U.S. government's official web portal to all federal, state and local government web resources and services.